sensor_id;sensor_type;location;lat;lon;timestamp;P1;durP1;ratioP1;P2;durP2;ratioP2
56680;SDS011;42558;52.388;13.390;2022-10-01T00:01:15;20.33;;;14.25;;
56680;SDS011;42558;52.388;13.390;2022-10-01T00:03:44;20.33;;;14.63;;
56680;SDS011;42558;52.388;13.390;2022-10-01T00:08:47;21.09;;;15.01;;
56680;SDS011;42558;52.388;13.390;2022-10-01T00:11:24;16.53;;;14.06;;
56680;SDS011;42558;52.388;13.390;2022-10-01T00:13:52;19.38;;;13.68;;
56680;SDS011;42558;52.388;13.390;2022-10-01T00:16:23;18.05;;;13.87;;
56680;SDS011;42558;52.388;13.390;2022-10-01T00:18:52;18.81;;;13.49;;
56680;SDS011;42558;52.388;13.390;2022-10-01T00:21:25;19.95;;;13.49;;
56680;SDS011;42558;52.388;13.390;2022-10-01T00:23:56;17.67;;;13.49;;
56680;SDS011;42558;52.388;13.390;2022-10-01T00:26:28;19.57;;;14.63;;
56680;SDS011;42558;52.388;13.390;2022-10-01T00:28:59;17.67;;;13.30;;
56680;SDS011;42558;52.388;13.390;2022-10-01T00:31:31;18.43;;;13.68;;
56680;SDS011;42558;52.388;13.390;2022-10-01T00:34:00;18.24;;;13.30;;
56680;SDS011;42558;52.388;13.390;2022-10-01T00:36:29;19.19;;;13.68;;
56680;SDS011;42558;52.388;13.390;2022-10-01T00:38:58;17.67;;;13.49;;
56680;SDS011;42558;52.388;13.390;2022-10-01T00:41:28;19.57;;;15.01;;
56680;SDS011;42558;52.388;13.390;2022-10-01T00:44:00;18.81;;;13.68;;
56680;SDS011;42558;52.388;13.390;2022-10-01T00:46:38;16.53;;;11.97;;
56680;SDS011;42558;52.388;13.390;2022-10-01T00:49:15;19.00;;;13.68;;
56680;SDS011;42558;52.388;13.390;2022-10-01T00:51:49;19.57;;;13.11;;
56680;SDS011;42558;52.388;13.390;2022-10-01T00:54:51;21.09;;;14.25;;
56680;SDS011;42558;52.388;13.390;2022-10-01T00:57:25;21.09;;;12.54;;
56680;SDS011;42558;52.388;13.390;2022-10-01T00:59:55;19.57;;;14.06;;
56680;SDS011;42558;52.388;13.390;2022-10-01T01:02:25;17.86;;;13.87;;
56680;SDS011;42558;52.388;13.390;2022-10-01T01:04:52;18.81;;;12.92;;
56680;SDS011;42558;52.388;13.390;2022-10-01T01:07:19;16.34;;;12.73;;
56680;SDS011;42558;52.388;13.390;2022-10-01T01:09:48;18.81;;;12.92;;
56680;SDS011;42558;52.388;13.390;2022-10-01T01:18:49;17.48;;;12.35;;
56680;SDS011;42558;52.388;13.390;2022-10-01T01:21:32;19.19;;;13.68;;
56680;SDS011;42558;52.388;13.390;2022-10-01T01:24:31;18.81;;;14.06;;
56680;SDS011;42558;52.388;13.390;2022-10-01T01:27:33;23.75;;;12.73;;
56680;SDS011;42558;52.388;13.390;2022-10-01T01:30:12;18.81;;;13.87;;
56680;SDS011;42558;52.388;13.390;2022-10-01T01:32:51;20.90;;;13.68;;
56680;SDS011;42558;52.388;13.390;2022-10-01T01:35:39;24.51;;;15.39;;
56680;SDS011;42558;52.388;13.390;2022-10-01T01:38:13;21.09;;;16.72;;
56680;SDS011;42558;52.388;13.390;2022-10-01T01:40:46;24.32;;;15.39;;
56680;SDS011;42558;52.388;13.390;2022-10-01T01:43:20;19.57;;;15.77;;
56680;SDS011;42558;52.388;13.390;2022-10-01T01:45:52;23.56;;;15.96;;
56680;SDS011;42558;52.388;13.390;2022-10-01T01:48:22;19.38;;;14.82;;
56680;SDS011;42558;52.388;13.390;2022-10-01T01:50:53;26.98;;;19.38;;
56680;SDS011;42558;52.388;13.390;2022-10-01T01:53:25;21.66;;;15.96;;
56680;SDS011;42558;52.388;13.390;2022-10-01T01:55:52;24.32;;;17.29;;
56680;SDS011;42558;52.388;13.390;2022-10-01T01:58:19;22.04;;;16.34;;
56680;SDS011;42558;52.388;13.390;2022-10-01T02:00:49;22.61;;;16.15;;
56680;SDS011;42558;52.388;13.390;2022-10-01T02:03:21;22.23;;;16.15;;
56680;SDS011;42558;52.388;13.390;2022-10-01T02:06:33;22.99;;;16.15;;
56680;SDS011;42558;52.388;13.390;2022-10-01T02:09:29;24.32;;;16.91;;
56680;SDS011;42558;52.388;13.390;2022-10-01T02:18:23;21.09;;;15.58;;
56680;SDS011;42558;52.388;13.390;2022-10-01T02:21:13;22.99;;;16.15;;
56680;SDS011;42558;52.388;13.390;2022-10-01T02:23:53;23.56;;;15.39;;
56680;SDS011;42558;52.388;13.390;2022-10-01T02:26:34;21.66;;;16.53;;
56680;SDS011;42558;52.388;13.390;2022-10-01T02:29:07;23.56;;;15.58;;
56680;SDS011;42558;52.388;13.390;2022-10-01T02:31:39;22.04;;;16.34;;
56680;SDS011;42558;52.388;13.390;2022-10-01T02:34:07;24.70;;;17.86;;
56680;SDS011;42558;52.388;13.390;2022-10-01T02:36:38;24.89;;;17.29;;
56680;SDS011;42558;52.388;13.390;2022-10-01T02:39:08;21.47;;;16.53;;
56680;SDS011;42558;52.388;13.390;2022-10-01T02:41:40;24.32;;;16.72;;
56680;SDS011;42558;52.388;13.390;2022-10-01T02:44:16;20.52;;;16.15;;
56680;SDS011;42558;52.388;13.390;2022-10-01T02:47:08;23.94;;;16.91;;
56680;SDS011;42558;52.388;13.390;2022-10-01T02:49:38;22.61;;;14.25;;
56680;SDS011;42558;52.388;13.390;2022-10-01T02:52:29;26.41;;;16.91;;
56680;SDS011;42558;52.388;13.390;2022-10-01T02:55:06;21.85;;;15.58;;
56680;SDS011;42558;52.388;13.390;2022-10-01T02:57:37;22.99;;;16.34;;
56680;SDS011;42558;52.388;13.390;2022-10-01T03:00:08;22.80;;;15.96;;
56680;SDS011;42558;52.388;13.390;2022-10-01T03:02:38;18.43;;;13.68;;
56680;SDS011;42558;52.388;13.390;2022-10-01T03:05:05;21.47;;;15.58;;
56680;SDS011;42558;52.388;13.390;2022-10-01T03:07:33;21.28;;;16.34;;
56680;SDS011;42558;52.388;13.390;2022-10-01T03:10:02;19.57;;;13.87;;
56680;SDS011;42558;52.388;13.390;2022-10-01T03:12:30;23.56;;;17.29;;
56680;SDS011;42558;52.388;13.390;2022-10-01T03:14:58;27.74;;;18.24;;
56680;SDS011;42558;52.388;13.390;2022-10-01T03:17:25;23.56;;;17.67;;
56680;SDS011;42558;52.388;13.390;2022-10-01T03:19:52;22.61;;;16.72;;
56680;SDS011;42558;52.388;13.390;2022-10-01T03:22:20;22.61;;;17.86;;
56680;SDS011;42558;52.388;13.390;2022-10-01T03:24:51;23.56;;;16.91;;
56680;SDS011;42558;52.388;13.390;2022-10-01T03:27:20;26.22;;;17.86;;
56680;SDS011;42558;52.388;13.390;2022-10-01T03:29:48;21.66;;;16.34;;
56680;SDS011;42558;52.388;13.390;2022-10-01T03:32:15;21.47;;;15.01;;
56680;SDS011;42558;52.388;13.390;2022-10-01T03:34:43;23.18;;;16.15;;
56680;SDS011;42558;52.388;13.390;2022-10-01T03:37:10;24.70;;;17.29;;
56680;SDS011;42558;52.388;13.390;2022-10-01T03:39:36;20.71;;;16.53;;
56680;SDS011;42558;52.388;13.390;2022-10-01T03:42:03;21.66;;;16.34;;
56680;SDS011;42558;52.388;13.390;2022-10-01T03:44:32;20.71;;;14.63;;
56680;SDS011;42558;52.388;13.390;2022-10-01T03:46:59;23.94;;;16.53;;
56680;SDS011;42558;52.388;13.390;2022-10-01T03:49:26;25.27;;;15.96;;
56680;SDS011;42558;52.388;13.390;2022-10-01T03:51:53;20.14;;;14.06;;
56680;SDS011;42558;52.388;13.390;2022-10-01T03:54:21;21.47;;;15.58;;
56680;SDS011;42558;52.388;13.390;2022-10-01T03:56:48;20.52;;;14.82;;
56680;SDS011;42558;52.388;13.390;2022-10-01T03:59:15;21.09;;;15.39;;
56680;SDS011;42558;52.388;13.390;2022-10-01T04:01:41;21.47;;;15.96;;
56680;SDS011;42558;52.388;13.390;2022-10-01T04:04:09;20.33;;;15.01;;
56680;SDS011;42558;52.388;13.390;2022-10-01T04:06:35;21.28;;;14.25;;
56680;SDS011;42558;52.388;13.390;2022-10-01T04:09:02;22.23;;;14.44;;
56680;SDS011;42558;52.388;13.390;2022-10-01T04:11:29;20.33;;;14.63;;
56680;SDS011;42558;52.388;13.390;2022-10-01T04:13:56;22.61;;;15.58;;
56680;SDS011;42558;52.388;13.390;2022-10-01T04:16:23;20.71;;;15.20;;
56680;SDS011;42558;52.388;13.390;2022-10-01T04:18:50;24.70;;;14.82;;
56680;SDS011;42558;52.388;13.390;2022-10-01T04:21:17;22.23;;;15.20;;
56680;SDS011;42558;52.388;13.390;2022-10-01T04:23:44;22.23;;;13.87;;
56680;SDS011;42558;52.388;13.390;2022-10-01T04:26:11;21.85;;;13.49;;
56680;SDS011;42558;52.388;13.390;2022-10-01T04:28:37;19.76;;;14.06;;
56680;SDS011;42558;52.388;13.390;2022-10-01T04:31:04;23.94;;;15.20;;
56680;SDS011;42558;52.388;13.390;2022-10-01T04:33:55;18.81;;;13.11;;
56680;SDS011;42558;52.388;13.390;2022-10-01T04:36:24;19.57;;;13.68;;
56680;SDS011;42558;52.388;13.390;2022-10-01T04:38:52;17.48;;;12.54;;
56680;SDS011;42558;52.388;13.390;2022-10-01T04:41:27;18.24;;;13.11;;
56680;SDS011;42558;52.388;13.390;2022-10-01T04:43:57;18.43;;;12.54;;
56680;SDS011;42558;52.388;13.390;2022-10-01T04:46:25;19.95;;;13.87;;
56680;SDS011;42558;52.388;13.390;2022-10-01T04:48:53;21.85;;;14.06;;
56680;SDS011;42558;52.388;13.390;2022-10-01T04:51:20;14.63;;;9.50;;
56680;SDS011;42558;52.388;13.390;2022-10-01T04:53:47;16.91;;;12.35;;
56680;SDS011;42558;52.388;13.390;2022-10-01T04:56:13;16.91;;;11.02;;
56680;SDS011;42558;52.388;13.390;2022-10-01T04:58:40;19.76;;;13.30;;
56680;SDS011;42558;52.388;13.390;2022-10-01T05:01:07;18.24;;;11.78;;
56680;SDS011;42558;52.388;13.390;2022-10-01T05:03:34;17.67;;;13.30;;
56680;SDS011;42558;52.388;13.390;2022-10-01T05:06:00;19.57;;;13.49;;
56680;SDS011;42558;52.388;13.390;2022-10-01T05:08:27;17.67;;;12.92;;
56680;SDS011;42558;52.388;13.390;2022-10-01T05:10:54;17.86;;;12.16;;
56680;SDS011;42558;52.388;13.390;2022-10-01T05:13:21;21.09;;;13.11;;
56680;SDS011;42558;52.388;13.390;2022-10-01T05:15:49;17.48;;;12.54;;
56680;SDS011;42558;52.388;13.390;2022-10-01T05:18:17;16.34;;;11.78;;
56680;SDS011;42558;52.388;13.390;2022-10-01T05:20:44;15.39;;;9.31;;
56680;SDS011;42558;52.388;13.390;2022-10-01T05:23:11;17.48;;;13.11;;
56680;SDS011;42558;52.388;13.390;2022-10-01T05:25:38;16.53;;;12.35;;
56680;SDS011;42558;52.388;13.390;2022-10-01T05:28:04;22.04;;;12.35;;
56680;SDS011;42558;52.388;13.390;2022-10-01T05:30:32;19.76;;;11.59;;
56680;SDS011;42558;52.388;13.390;2022-10-01T05:33:02;17.48;;;11.59;;
56680;SDS011;42558;52.388;13.390;2022-10-01T05:35:30;16.53;;;11.40;;
56680;SDS011;42558;52.388;13.390;2022-10-01T05:37:59;16.91;;;10.64;;
56680;SDS011;42558;52.388;13.390;2022-10-01T05:40:29;15.77;;;11.02;;
56680;SDS011;42558;52.388;13.390;2022-10-01T05:42:57;15.01;;;10.07;;
56680;SDS011;42558;52.388;13.390;2022-10-01T05:45:26;21.09;;;11.21;;
56680;SDS011;42558;52.388;13.390;2022-10-01T05:48:02;19.00;;;12.73;;
56680;SDS011;42558;52.388;13.390;2022-10-01T05:50:33;17.67;;;10.64;;
56680;SDS011;42558;52.388;13.390;2022-10-01T05:53:07;18.05;;;10.83;;
56680;SDS011;42558;52.388;13.390;2022-10-01T05:55:36;17.10;;;11.21;;
56680;SDS011;42558;52.388;13.390;2022-10-01T05:58:06;16.15;;;11.21;;
56680;SDS011;42558;52.388;13.390;2022-10-01T06:00:38;18.43;;;10.07;;
56680;SDS011;42558;52.388;13.390;2022-10-01T06:03:07;16.34;;;11.78;;
56680;SDS011;42558;52.388;13.390;2022-10-01T06:05:38;14.44;;;10.26;;
56680;SDS011;42558;52.388;13.390;2022-10-01T06:08:05;16.72;;;12.16;;
56680;SDS011;42558;52.388;13.390;2022-10-01T06:10:35;18.62;;;11.59;;
56680;SDS011;42558;52.388;13.390;2022-10-01T06:13:03;16.53;;;11.02;;
56680;SDS011;42558;52.388;13.390;2022-10-01T06:15:36;15.01;;;10.64;;
56680;SDS011;42558;52.388;13.390;2022-10-01T06:18:08;19.19;;;14.44;;
56680;SDS011;42558;52.388;13.390;2022-10-01T06:20:36;16.34;;;11.59;;
56680;SDS011;42558;52.388;13.390;2022-10-01T06:23:06;17.29;;;11.02;;
56680;SDS011;42558;52.388;13.390;2022-10-01T06:25:41;15.58;;;11.40;;
56680;SDS011;42558;52.388;13.390;2022-10-01T06:28:10;15.96;;;10.45;;
56680;SDS011;42558;52.388;13.390;2022-10-01T06:30:38;15.96;;;10.83;;
56680;SDS011;42558;52.388;13.390;2022-10-01T06:33:08;16.15;;;11.40;;
56680;SDS011;42558;52.388;13.390;2022-10-01T06:35:46;15.77;;;12.16;;
56680;SDS011;42558;52.388;13.390;2022-10-01T06:38:16;16.34;;;11.21;;
56680;SDS011;42558;52.388;13.390;2022-10-01T06:40:59;17.67;;;12.35;;
56680;SDS011;42558;52.388;13.390;2022-10-01T06:43:29;15.39;;;10.26;;
56680;SDS011;42558;52.388;13.390;2022-10-01T06:46:00;17.48;;;10.64;;
56680;SDS011;42558;52.388;13.390;2022-10-01T06:48:28;16.34;;;11.21;;
56680;SDS011;42558;52.388;13.390;2022-10-01T06:50:57;20.14;;;11.59;;
56680;SDS011;42558;52.388;13.390;2022-10-01T06:53:26;17.48;;;11.78;;
56680;SDS011;42558;52.388;13.390;2022-10-01T06:55:54;15.39;;;11.21;;
56680;SDS011;42558;52.388;13.390;2022-10-01T06:58:22;14.63;;;10.64;;
56680;SDS011;42558;52.388;13.390;2022-10-01T07:01:00;17.10;;;10.26;;
56680;SDS011;42558;52.388;13.390;2022-10-01T07:03:30;12.73;;;8.93;;
56680;SDS011;42558;52.388;13.390;2022-10-01T07:06:02;17.10;;;10.64;;
56680;SDS011;42558;52.388;13.390;2022-10-01T07:08:30;15.20;;;10.07;;
56680;SDS011;42558;52.388;13.390;2022-10-01T07:11:02;15.39;;;11.21;;
56680;SDS011;42558;52.388;13.390;2022-10-01T07:13:30;15.58;;;10.26;;
56680;SDS011;42558;52.388;13.390;2022-10-01T07:15:57;16.91;;;11.40;;
56680;SDS011;42558;52.388;13.390;2022-10-01T07:18:23;14.82;;;10.26;;
56680;SDS011;42558;52.388;13.390;2022-10-01T07:20:50;18.24;;;13.11;;
56680;SDS011;42558;52.388;13.390;2022-10-01T07:23:17;18.05;;;12.54;;
56680;SDS011;42558;52.388;13.390;2022-10-01T07:25:44;16.34;;;10.45;;
56680;SDS011;42558;52.388;13.390;2022-10-01T07:28:14;21.66;;;13.87;;
56680;SDS011;42558;52.388;13.390;2022-10-01T07:31:00;20.14;;;12.92;;
56680;SDS011;42558;52.388;13.390;2022-10-01T07:33:29;14.44;;;10.45;;
56680;SDS011;42558;52.388;13.390;2022-10-01T07:35:59;15.77;;;11.59;;
56680;SDS011;42558;52.388;13.390;2022-10-01T07:38:27;16.15;;;11.59;;
56680;SDS011;42558;52.388;13.390;2022-10-01T07:40:54;15.39;;;11.59;;
56680;SDS011;42558;52.388;13.390;2022-10-01T07:43:21;15.01;;;10.83;;
56680;SDS011;42558;52.388;13.390;2022-10-01T07:45:48;17.29;;;10.83;;
56680;SDS011;42558;52.388;13.390;2022-10-01T07:48:15;16.53;;;11.59;;
56680;SDS011;42558;52.388;13.390;2022-10-01T07:50:43;15.77;;;10.64;;
56680;SDS011;42558;52.388;13.390;2022-10-01T07:53:11;15.58;;;11.21;;
56680;SDS011;42558;52.388;13.390;2022-10-01T07:55:39;17.48;;;10.07;;
56680;SDS011;42558;52.388;13.390;2022-10-01T07:58:06;14.25;;;10.45;;
56680;SDS011;42558;52.388;13.390;2022-10-01T08:00:33;17.10;;;10.26;;
56680;SDS011;42558;52.388;13.390;2022-10-01T08:03:00;13.87;;;10.45;;
56680;SDS011;42558;52.388;13.390;2022-10-01T08:05:29;14.06;;;10.07;;
56680;SDS011;42558;52.388;13.390;2022-10-01T08:08:00;13.68;;;8.74;;
56680;SDS011;42558;52.388;13.390;2022-10-01T08:10:29;15.01;;;9.88;;
56680;SDS011;42558;52.388;13.390;2022-10-01T08:13:02;17.67;;;10.83;;
56680;SDS011;42558;52.388;13.390;2022-10-01T08:15:50;16.34;;;10.64;;
56680;SDS011;42558;52.388;13.390;2022-10-01T08:18:20;18.62;;;10.83;;
56680;SDS011;42558;52.388;13.390;2022-10-01T08:20:48;13.11;;;8.36;;
56680;SDS011;42558;52.388;13.390;2022-10-01T08:23:15;15.20;;;10.26;;
56680;SDS011;42558;52.388;13.390;2022-10-01T08:25:43;14.82;;;9.88;;
56680;SDS011;42558;52.388;13.390;2022-10-01T08:28:11;14.44;;;9.69;;
56680;SDS011;42558;52.388;13.390;2022-10-01T08:30:40;15.39;;;9.12;;
56680;SDS011;42558;52.388;13.390;2022-10-01T08:33:11;14.63;;;9.31;;
56680;SDS011;42558;52.388;13.390;2022-10-01T08:35:40;18.05;;;11.21;;
56680;SDS011;42558;52.388;13.390;2022-10-01T08:38:09;16.72;;;11.02;;
56680;SDS011;42558;52.388;13.390;2022-10-01T08:40:44;14.44;;;9.69;;
56680;SDS011;42558;52.388;13.390;2022-10-01T08:43:33;16.72;;;10.07;;
56680;SDS011;42558;52.388;13.390;2022-10-01T08:46:18;15.01;;;9.69;;
56680;SDS011;42558;52.388;13.390;2022-10-01T08:49:14;12.73;;;7.98;;
56680;SDS011;42558;52.388;13.390;2022-10-01T08:51:58;14.82;;;9.88;;
56680;SDS011;42558;52.388;13.390;2022-10-01T08:54:37;14.25;;;8.36;;
56680;SDS011;42558;52.388;13.390;2022-10-01T08:57:19;13.11;;;8.74;;
56680;SDS011;42558;52.388;13.390;2022-10-01T08:59:57;10.83;;;7.41;;
56680;SDS011;42558;52.388;13.390;2022-10-01T09:02:29;11.21;;;7.41;;
56680;SDS011;42558;52.388;13.390;2022-10-01T09:05:03;13.30;;;7.79;;
56680;SDS011;42558;52.388;13.390;2022-10-01T09:07:41;11.59;;;7.22;;
56680;SDS011;42558;52.388;13.390;2022-10-01T09:10:43;9.88;;;7.03;;
56680;SDS011;42558;52.388;13.390;2022-10-01T09:19:44;15.39;;;6.27;;
56680;SDS011;42558;52.388;13.390;2022-10-01T09:25:16;14.82;;;6.84;;
56680;SDS011;42558;52.388;13.390;2022-10-01T09:27:47;9.88;;;5.70;;
56680;SDS011;42558;52.388;13.390;2022-10-01T09:30:21;10.64;;;6.08;;
56680;SDS011;42558;52.388;13.390;2022-10-01T09:32:54;9.31;;;5.51;;
56680;SDS011;42558;52.388;13.390;2022-10-01T09:37:56;7.98;;;5.32;;
56680;SDS011;42558;52.388;13.390;2022-10-01T09:43:03;10.45;;;5.32;;
56680;SDS011;42558;52.388;13.390;2022-10-01T09:45:33;8.55;;;4.94;;
56680;SDS011;42558;52.388;13.390;2022-10-01T09:51:24;9.50;;;4.75;;
56680;SDS011;42558;52.388;13.390;2022-10-01T09:54:04;8.55;;;4.18;;
56680;SDS011;42558;52.388;13.390;2022-10-01T09:56:48;8.17;;;4.37;;
56680;SDS011;42558;52.388;13.390;2022-10-01T09:59:30;6.84;;;3.61;;
56680;SDS011;42558;52.388;13.390;2022-10-01T10:02:19;9.50;;;4.75;;
56680;SDS011;42558;52.388;13.390;2022-10-01T10:05:01;8.55;;;4.94;;
56680;SDS011;42558;52.388;13.390;2022-10-01T10:07:30;10.07;;;5.32;;
56680;SDS011;42558;52.388;13.390;2022-10-01T10:10:14;8.93;;;5.13;;
56680;SDS011;42558;52.388;13.390;2022-10-01T10:13:13;8.93;;;5.32;;
56680;SDS011;42558;52.388;13.390;2022-10-01T10:15:53;11.02;;;6.08;;
56680;SDS011;42558;52.388;13.390;2022-10-01T10:18:33;10.83;;;6.08;;
56680;SDS011;42558;52.388;13.390;2022-10-01T10:21:15;9.88;;;5.51;;
56680;SDS011;42558;52.388;13.390;2022-10-01T10:23:48;12.92;;;8.17;;
56680;SDS011;42558;52.388;13.390;2022-10-01T10:29:06;10.83;;;6.08;;
56680;SDS011;42558;52.388;13.390;2022-10-01T10:31:49;12.16;;;6.84;;
56680;SDS011;42558;52.388;13.390;2022-10-01T10:34:24;10.83;;;6.84;;
56680;SDS011;42558;52.388;13.390;2022-10-01T10:37:00;12.35;;;7.03;;
56680;SDS011;42558;52.388;13.390;2022-10-01T10:39:36;12.92;;;6.65;;
56680;SDS011;42558;52.388;13.390;2022-10-01T10:42:06;11.59;;;6.65;;
56680;SDS011;42558;52.388;13.390;2022-10-01T10:44:37;11.40;;;7.03;;
56680;SDS011;42558;52.388;13.390;2022-10-01T10:47:08;10.26;;;6.84;;
56680;SDS011;42558;52.388;13.390;2022-10-01T10:49:53;11.97;;;7.79;;
56680;SDS011;42558;52.388;13.390;2022-10-01T10:52:32;16.91;;;11.78;;
56680;SDS011;42558;52.388;13.390;2022-10-01T10:55:20;13.30;;;9.12;;
56680;SDS011;42558;52.388;13.390;2022-10-01T10:57:49;22.42;;;15.58;;
56680;SDS011;42558;52.388;13.390;2022-10-01T11:00:24;19.00;;;16.53;;
56680;SDS011;42558;52.388;13.390;2022-10-01T11:02:58;12.54;;;8.74;;
56680;SDS011;42558;52.388;13.390;2022-10-01T11:05:29;10.64;;;6.46;;
56680;SDS011;42558;52.388;13.390;2022-10-01T11:08:03;12.35;;;7.03;;
56680;SDS011;42558;52.388;13.390;2022-10-01T11:22:47;11.21;;;7.03;;
56680;SDS011;42558;52.388;13.390;2022-10-01T11:28:50;9.50;;;6.08;;
56680;SDS011;42558;52.388;13.390;2022-10-01T11:31:46;10.07;;;5.89;;
56680;SDS011;42558;52.388;13.390;2022-10-01T11:34:32;11.97;;;6.46;;
56680;SDS011;42558;52.388;13.390;2022-10-01T11:37:28;10.45;;;7.22;;
56680;SDS011;42558;52.388;13.390;2022-10-01T11:40:23;11.59;;;7.79;;
56680;SDS011;42558;52.388;13.390;2022-10-01T11:43:04;12.35;;;7.03;;
56680;SDS011;42558;52.388;13.390;2022-10-01T11:45:44;13.11;;;7.41;;
56680;SDS011;42558;52.388;13.390;2022-10-01T11:48:24;11.40;;;6.65;;
56680;SDS011;42558;52.388;13.390;2022-10-01T11:51:06;10.26;;;6.65;;
56680;SDS011;42558;52.388;13.390;2022-10-01T11:53:42;13.49;;;7.60;;
56680;SDS011;42558;52.388;13.390;2022-10-01T11:56:28;10.83;;;6.65;;
56680;SDS011;42558;52.388;13.390;2022-10-01T11:59:37;13.49;;;7.79;;
56680;SDS011;42558;52.388;13.390;2022-10-01T12:02:19;8.36;;;5.70;;
56680;SDS011;42558;52.388;13.390;2022-10-01T12:05:09;9.31;;;5.70;;
56680;SDS011;42558;52.388;13.390;2022-10-01T12:07:50;9.88;;;5.51;;
56680;SDS011;42558;52.388;13.390;2022-10-01T12:11:09;9.12;;;5.13;;
56680;SDS011;42558;52.388;13.390;2022-10-01T12:13:52;10.45;;;7.03;;
56680;SDS011;42558;52.388;13.390;2022-10-01T12:16:35;12.16;;;6.08;;
56680;SDS011;42558;52.388;13.390;2022-10-01T12:19:14;11.59;;;5.51;;
56680;SDS011;42558;52.388;13.390;2022-10-01T12:22:05;8.93;;;5.70;;
56680;SDS011;42558;52.388;13.390;2022-10-01T12:24:43;8.93;;;5.70;;
56680;SDS011;42558;52.388;13.390;2022-10-01T12:30:26;9.88;;;5.51;;
56680;SDS011;42558;52.388;13.390;2022-10-01T12:42:09;10.07;;;5.89;;
56680;SDS011;42558;52.388;13.390;2022-10-01T12:45:04;10.26;;;5.51;;
56680;SDS011;42558;52.388;13.390;2022-10-01T12:47:59;9.31;;;4.94;;
56680;SDS011;42558;52.388;13.390;2022-10-01T13:05:55;11.02;;;5.32;;
56680;SDS011;42558;52.388;13.390;2022-10-01T13:08:39;10.07;;;4.94;;
56680;SDS011;42558;52.388;13.390;2022-10-01T13:14:18;8.55;;;5.51;;
56680;SDS011;42558;52.388;13.390;2022-10-01T13:17:05;8.36;;;5.13;;
56680;SDS011;42558;52.388;13.390;2022-10-01T13:19:41;9.12;;;5.32;;
56680;SDS011;42558;52.388;13.390;2022-10-01T13:25:42;9.69;;;5.89;;
56680;SDS011;42558;52.388;13.390;2022-10-01T13:31:12;8.74;;;5.32;;
56680;SDS011;42558;52.388;13.390;2022-10-01T13:33:41;10.83;;;5.32;;
56680;SDS011;42558;52.388;13.390;2022-10-01T13:36:27;9.12;;;4.94;;
56680;SDS011;42558;52.388;13.390;2022-10-01T13:38:58;7.60;;;4.94;;
56680;SDS011;42558;52.388;13.390;2022-10-01T13:41:32;9.12;;;4.18;;
56680;SDS011;42558;52.388;13.390;2022-10-01T13:44:16;8.36;;;4.75;;
56680;SDS011;42558;52.388;13.390;2022-10-01T13:46:52;7.98;;;4.56;;
56680;SDS011;42558;52.388;13.390;2022-10-01T13:49:29;7.60;;;4.56;;
56680;SDS011;42558;52.388;13.390;2022-10-01T13:51:57;8.93;;;4.37;;
56680;SDS011;42558;52.388;13.390;2022-10-01T13:54:33;8.55;;;4.18;;
56680;SDS011;42558;52.388;13.390;2022-10-01T13:57:35;6.84;;;3.99;;
56680;SDS011;42558;52.388;13.390;2022-10-01T14:02:44;8.74;;;4.37;;
56680;SDS011;42558;52.388;13.390;2022-10-01T14:05:40;6.65;;;3.80;;
56680;SDS011;42558;52.388;13.390;2022-10-01T14:08:35;6.84;;;3.42;;
56680;SDS011;42558;52.388;13.390;2022-10-01T14:11:16;7.60;;;3.99;;
56680;SDS011;42558;52.388;13.390;2022-10-01T14:14:12;7.22;;;4.18;;
56680;SDS011;42558;52.388;13.390;2022-10-01T14:17:07;8.36;;;5.13;;
56680;SDS011;42558;52.388;13.390;2022-10-01T14:19:36;8.93;;;4.75;;
56680;SDS011;42558;52.388;13.390;2022-10-01T14:22:16;7.22;;;4.37;;
56680;SDS011;42558;52.388;13.390;2022-10-01T14:36:43;6.08;;;3.61;;
56680;SDS011;42558;52.388;13.390;2022-10-01T14:39:19;7.03;;;3.61;;
56680;SDS011;42558;52.388;13.390;2022-10-01T14:41:53;7.03;;;4.56;;
56680;SDS011;42558;52.388;13.390;2022-10-01T14:44:25;6.65;;;3.80;;
56680;SDS011;42558;52.388;13.390;2022-10-01T14:46:56;7.98;;;3.61;;
56680;SDS011;42558;52.388;13.390;2022-10-01T14:49:30;7.22;;;3.99;;
56680;SDS011;42558;52.388;13.390;2022-10-01T14:52:04;7.22;;;3.04;;
56680;SDS011;42558;52.388;13.390;2022-10-01T14:57:37;5.89;;;2.66;;
56680;SDS011;42558;52.388;13.390;2022-10-01T15:00:15;7.03;;;2.85;;
56680;SDS011;42558;52.388;13.390;2022-10-01T15:02:48;5.32;;;1.71;;
56680;SDS011;42558;52.388;13.390;2022-10-01T15:05:21;5.13;;;2.09;;
56680;SDS011;42558;52.388;13.390;2022-10-01T15:07:50;7.22;;;3.04;;
56680;SDS011;42558;52.388;13.390;2022-10-01T15:10:19;6.46;;;2.47;;
56680;SDS011;42558;52.388;13.390;2022-10-01T15:12:50;5.89;;;2.47;;
56680;SDS011;42558;52.388;13.390;2022-10-01T15:15:20;6.08;;;2.47;;
56680;SDS011;42558;52.388;13.390;2022-10-01T15:17:53;5.32;;;2.66;;
56680;SDS011;42558;52.388;13.390;2022-10-01T15:20:21;7.98;;;3.04;;
56680;SDS011;42558;52.388;13.390;2022-10-01T15:22:49;6.46;;;2.28;;
56680;SDS011;42558;52.388;13.390;2022-10-01T15:25:28;5.32;;;2.09;;
56680;SDS011;42558;52.388;13.390;2022-10-01T15:27:57;5.13;;;1.90;;
56680;SDS011;42558;52.388;13.390;2022-10-01T15:30:26;6.65;;;3.04;;
56680;SDS011;42558;52.388;13.390;2022-10-01T15:32:53;5.89;;;2.66;;
56680;SDS011;42558;52.388;13.390;2022-10-01T15:35:22;5.51;;;2.28;;
56680;SDS011;42558;52.388;13.390;2022-10-01T15:37:49;6.27;;;1.90;;
56680;SDS011;42558;52.388;13.390;2022-10-01T15:40:25;6.27;;;2.09;;
56680;SDS011;42558;52.388;13.390;2022-10-01T15:45:34;5.13;;;2.09;;
56680;SDS011;42558;52.388;13.390;2022-10-01T15:48:01;7.41;;;3.04;;
56680;SDS011;42558;52.388;13.390;2022-10-01T15:50:36;4.94;;;1.90;;
56680;SDS011;42558;52.388;13.390;2022-10-01T15:53:09;4.94;;;2.09;;
56680;SDS011;42558;52.388;13.390;2022-10-01T15:55:47;5.13;;;1.90;;
56680;SDS011;42558;52.388;13.390;2022-10-01T15:58:22;6.65;;;2.47;;
56680;SDS011;42558;52.388;13.390;2022-10-01T16:01:03;6.27;;;2.47;;
56680;SDS011;42558;52.388;13.390;2022-10-01T16:03:38;5.70;;;2.47;;
56680;SDS011;42558;52.388;13.390;2022-10-01T16:06:16;6.46;;;2.66;;
56680;SDS011;42558;52.388;13.390;2022-10-01T16:09:00;5.32;;;2.66;;
56680;SDS011;42558;52.388;13.390;2022-10-01T16:11:49;7.03;;;2.47;;
56680;SDS011;42558;52.388;13.390;2022-10-01T16:19:50;7.60;;;2.85;;
56680;SDS011;42558;52.388;13.390;2022-10-01T16:22:32;7.03;;;2.47;;
56680;SDS011;42558;52.388;13.390;2022-10-01T16:25:03;5.89;;;2.28;;
56680;SDS011;42558;52.388;13.390;2022-10-01T16:27:43;7.03;;;2.47;;
56680;SDS011;42558;52.388;13.390;2022-10-01T16:30:23;5.89;;;2.47;;
56680;SDS011;42558;52.388;13.390;2022-10-01T16:32:57;7.03;;;2.28;;
56680;SDS011;42558;52.388;13.390;2022-10-01T16:35:30;5.13;;;2.28;;
56680;SDS011;42558;52.388;13.390;2022-10-01T16:38:01;7.03;;;2.47;;
56680;SDS011;42558;52.388;13.390;2022-10-01T16:40:37;5.70;;;2.09;;
56680;SDS011;42558;52.388;13.390;2022-10-01T16:43:05;6.65;;;2.85;;
56680;SDS011;42558;52.388;13.390;2022-10-01T16:45:36;6.46;;;2.66;;
56680;SDS011;42558;52.388;13.390;2022-10-01T16:48:11;5.32;;;2.28;;
56680;SDS011;42558;52.388;13.390;2022-10-01T16:50:41;6.08;;;2.47;;
56680;SDS011;42558;52.388;13.390;2022-10-01T16:53:11;5.89;;;2.66;;